Time;durP1;ratioP1;P1;durP2;ratioP2;P2;SDS_P1;SDS_P2;PMS_P1;PMS_P2;Temp;Humidity;BMP_temperature;BMP_pressure;BME280_temperature;BME280_humidity;BME280_pressure;Samples;Min_cycle;Max_cycle;Signal;HPM_P1;HPM_P2
2022/05/01 00:00:14;;;;;;;8.00;7.23;;;;;;;7.26;100.00;99627.72;5015559;28;20213;-78
2022/05/01 00:02:41;;;;;;;8.07;7.27;;;;;;;7.24;100.00;99626.25;5015178;28;20276;-76
2022/05/01 00:05:08;;;;;;;8.20;7.40;;;;;;;7.22;100.00;99626.47;5015119;28;20240;-78
2022/05/01 00:07:35;;;;;;;8.37;7.50;;;;;;;7.21;100.00;99621.34;5015506;28;20230;-80
2022/05/01 00:10:03;;;;;;;8.57;7.77;;;;;;;7.20;100.00;99625.84;5033087;28;20513;-78
2022/05/01 00:12:30;;;;;;;9.50;7.73;;;;;;;7.20;100.00;99623.19;5033093;28;20274;-77
2022/05/01 00:14:56;;;;;;;8.03;7.33;;;;;;;7.18;100.00;99614.59;5015495;28;20301;-77
2022/05/01 00:17:23;;;;;;;7.87;7.17;;;;;;;7.18;100.00;99622.56;5015214;28;20546;-77
2022/05/01 00:19:50;;;;;;;8.57;7.33;;;;;;;7.15;100.00;99622.13;5015460;28;20198;-78
2022/05/01 00:22:18;;;;;;;8.80;7.43;;;;;;;7.14;100.00;99621.31;5032511;28;20265;-78
2022/05/01 00:24:45;;;;;;;9.10;8.07;;;;;;;7.11;100.00;99626.22;5032976;28;20540;-79
2022/05/01 00:27:13;;;;;;;7.77;7.07;;;;;;;7.08;100.00;99622.09;5014925;28;20214;-77
2022/05/01 00:29:40;;;;;;;8.80;7.90;;;;;;;7.09;100.00;99616.56;5015230;28;20242;-79
2022/05/01 00:32:07;;;;;;;8.60;7.80;;;;;;;7.08;100.00;99622.94;5015163;28;20190;-77
2022/05/01 00:37:19;;;;;;;8.43;7.60;;;;;;;7.03;100.00;99630.69;5018328;28;20190;-77
2022/05/01 00:39:47;;;;;;;8.53;7.83;;;;;;;7.01;100.00;99624.72;5032313;28;20210;-77
2022/05/01 00:42:17;;;;;;;8.90;8.07;;;;;;;7.00;100.00;99627.56;5032505;28;20198;-78
2022/05/01 00:44:45;;;;;;;8.60;7.80;;;;;;;7.06;100.00;99632.94;5015311;28;20272;-78
2022/05/01 00:47:12;;;;;;;8.33;7.60;;;;;;;7.07;100.00;99628.44;5032850;28;20257;-78
2022/05/01 00:49:39;;;;;;;8.53;7.60;;;;;;;7.04;100.00;99632.34;5015366;28;20236;-79
2022/05/01 00:52:09;;;;;;;8.33;7.63;;;;;;;7.08;100.00;99633.59;5014893;28;20198;-78
2022/05/01 00:54:42;;;;;;;8.53;7.83;;;;;;;7.11;100.00;99629.69;5015477;28;20297;-76
2022/05/01 00:57:10;;;;;;;8.30;7.50;;;;;;;7.15;100.00;99636.28;5032368;28;20546;-77
2022/05/01 00:59:38;;;;;;;8.50;7.70;;;;;;;7.18;100.00;99635.91;5036047;28;20174;-77
2022/05/01 01:02:06;;;;;;;8.50;7.70;;;;;;;7.21;100.00;99637.34;5035436;28;20232;-76
2022/05/01 01:04:33;;;;;;;8.77;7.87;;;;;;;7.24;100.00;99635.09;5018549;28;20202;-77
2022/05/01 01:07:00;;;;;;;8.70;7.87;;;;;;;7.24;100.00;99629.75;5002180;28;20585;-77
2022/05/01 01:09:27;;;;;;;8.07;7.27;;;;;;;7.28;100.00;99640.88;5018601;28;20214;-76
2022/05/01 01:14:42;;;;;;;7.60;7.00;;;;;;;7.27;100.00;99636.56;5035978;28;20265;-77
2022/05/01 01:17:10;;;;;;;8.80;7.90;;;;;;;7.24;100.00;99634.25;5018887;28;20174;-78
2022/05/01 01:19:37;;;;;;;8.77;7.50;;;;;;;7.24;100.00;99639.59;5019155;28;20226;-79
2022/05/01 01:22:07;;;;;;;8.17;7.40;;;;;;;7.23;100.00;99640.63;5018802;28;20178;-78
2022/05/01 01:24:37;;;;;;;8.57;7.77;;;;;;;7.20;100.00;99631.19;5019722;28;20265;-78
2022/05/01 01:27:04;;;;;;;8.47;7.70;;;;;;;7.18;100.00;99643.88;5017628;28;20213;-78
2022/05/01 01:32:19;;;;;;;8.57;7.70;;;;;;;7.21;100.00;99629.34;5020692;28;20261;-76
2022/05/01 01:34:49;;;;;;;9.07;8.17;;;;;;;7.20;100.00;99625.84;5019377;28;20564;-77
2022/05/01 01:37:16;;;;;;;8.40;7.60;;;;;;;7.19;100.00;99632.19;5017436;28;20228;-77
2022/05/01 01:39:43;;;;;;;8.23;7.43;;;;;;;7.21;100.00;99632.81;5018196;28;20240;-80
2022/05/01 01:42:11;;;;;;;8.60;7.70;;;;;;;7.21;100.00;99622.16;5018963;28;20504;-78
2022/05/01 01:44:38;;;;;;;7.90;7.20;;;;;;;7.17;100.00;99620.09;5036120;28;20206;-79
2022/05/01 01:47:06;;;;;;;9.10;8.20;;;;;;;7.17;100.00;99625.44;5035139;28;20186;-80
2022/05/01 01:49:33;;;;;;;8.53;7.63;;;;;;;7.11;100.00;99624.38;5035989;28;20240;-76
2022/05/01 01:52:00;;;;;;;8.50;7.70;;;;;;;7.07;100.00;99629.28;5017993;28;20183;-77
2022/05/01 01:54:28;;;;;;;8.30;7.53;;;;;;;7.05;100.00;99620.66;5017895;28;20268;-77
2022/05/01 01:56:55;;;;;;;8.37;7.57;;;;;;;7.06;100.00;99624.13;5035919;28;20182;-78
2022/05/01 01:59:22;;;;;;;8.37;7.57;;;;;;;7.05;100.00;99628.63;5017615;28;20654;-77
2022/05/01 02:01:49;;;;;;;8.77;7.97;;;;;;;7.06;100.00;99632.13;5018021;28;20234;-77
2022/05/01 02:04:17;;;;;;;8.53;7.70;;;;;;;7.04;100.00;99628.84;5017635;28;20189;-77
2022/05/01 02:06:44;;;;;;;8.70;7.80;;;;;;;7.02;100.00;99634.38;5034952;28;20192;-78
2022/05/01 02:09:12;;;;;;;8.87;7.50;;;;;;;7.00;100.00;99633.72;5016670;28;20206;-77
2022/05/01 02:11:38;;;;;;;8.30;7.50;;;;;;;6.98;100.00;99637.63;5034976;28;20236;-78
2022/05/01 02:14:10;;;;;;;8.10;7.33;;;;;;;6.93;100.00;99632.88;5001297;28;20280;-78
2022/05/01 02:16:37;;;;;;;8.97;7.70;;;;;;;6.87;100.00;99635.50;5017655;28;20597;-77
2022/05/01 02:19:04;;;;;;;8.27;7.50;;;;;;;6.85;100.00;99635.72;5017213;28;20186;-76
2022/05/01 02:21:34;;;;;;;8.00;7.30;;;;;;;6.81;100.00;99630.97;5001346;28;20264;-78
2022/05/01 02:24:10;;;;;;;8.00;7.30;;;;;;;6.74;100.00;99630.91;5034401;28;20187;-78
2022/05/01 02:26:37;;;;;;;9.30;7.83;;;;;;;6.69;100.00;99641.31;5034206;28;20523;-78
2022/05/01 02:29:09;;;;;;;8.60;7.70;;;;;;;6.65;100.00;99637.41;5016418;28;20301;-78
2022/05/01 02:31:42;;;;;;;8.80;7.90;;;;;;;6.62;100.00;99637.81;5017756;28;20232;-78
2022/05/01 02:34:11;;;;;;;8.40;7.50;;;;;;;6.58;100.00;99639.19;5034521;28;20170;-77
2022/05/01 02:36:38;;;;;;;8.60;7.73;;;;;;;6.55;100.00;99639.56;5017485;28;20278;-78
2022/05/01 02:39:05;;;;;;;7.83;7.13;;;;;;;6.54;100.00;99644.06;5016462;28;20191;-78
2022/05/01 02:41:32;;;;;;;8.27;7.57;;;;;;;6.53;100.00;99636.31;5034187;28;20221;-79
2022/05/01 02:43:59;;;;;;;8.53;7.63;;;;;;;6.52;100.00;99634.66;5016650;28;20202;-80
2022/05/01 02:46:26;;;;;;;8.67;7.87;;;;;;;6.47;100.00;99637.06;5000713;28;20285;-77
2022/05/01 02:48:53;;;;;;;8.67;7.87;;;;;;;6.43;100.00;99635.81;5034402;28;20632;-78
2022/05/01 02:51:20;;;;;;;8.40;7.70;;;;;;;6.35;100.00;99638.59;5000587;28;20194;-80
2022/05/01 02:53:47;;;;;;;8.50;7.60;;;;;;;6.33;100.00;99644.13;5000249;28;20233;-76
2022/05/01 02:56:14;;;;;;;8.97;7.93;;;;;;;6.31;100.00;99637.34;5015927;28;20659;-79
2022/05/01 02:58:41;;;;;;;9.10;8.20;;;;;;;6.27;100.00;99642.22;5016381;28;20269;-78
2022/05/01 03:01:08;;;;;;;9.17;8.27;;;;;;;6.23;100.00;99642.78;4999749;28;20614;-77
2022/05/01 03:03:35;;;;;;;8.60;7.80;;;;;;;6.20;100.00;99646.66;5033871;28;20175;-77
2022/05/01 03:06:02;;;;;;;9.03;8.23;;;;;;;6.18;100.00;99643.38;5016044;28;20656;-78
2022/05/01 03:08:29;;;;;;;10.30;8.40;;;;;;;6.15;100.00;99649.91;5016555;28;20422;-78
2022/05/01 03:10:54;;;;;;;8.87;8.07;;;;;;;6.16;100.00;99658.69;5033826;28;20209;-80
2022/05/01 03:13:21;;;;;;;9.20;8.30;;;;;;;6.11;100.00;99656.59;5015748;28;20665;-78
2022/05/01 03:15:48;;;;;;;9.30;8.40;;;;;;;6.09;100.00;99657.81;5015867;28;20218;-78
2022/05/01 03:23:47;;;;;;;9.67;8.77;;;;;;;5.98;100.00;99651.16;5016579;28;20309;-76
2022/05/01 03:26:16;;;;;;;9.43;8.53;;;;;;;5.95;100.00;99654.19;5033169;28;20387;-77
2022/05/01 03:28:44;;;;;;;9.03;8.23;;;;;;;5.95;100.00;99653.38;5016278;28;20625;-77
2022/05/01 03:31:12;;;;;;;9.27;8.47;;;;;;;5.98;100.00;99664.44;5033322;28;20186;-77
2022/05/01 03:33:41;;;;;;;9.77;8.83;;;;;;;6.01;100.00;99663.25;5016105;28;20210;-79
2022/05/01 03:36:09;;;;;;;9.47;8.67;;;;;;;6.03;100.00;99666.53;5016008;28;20240;-77
2022/05/01 03:38:40;;;;;;;10.53;9.43;;;;;;;6.01;100.00;99663.25;5033351;28;20205;-79
2022/05/01 03:41:09;;;;;;;9.90;8.93;;;;;;;6.04;100.00;99669.03;5015570;28;20535;-80
2022/05/01 03:43:37;;;;;;;9.87;8.97;;;;;;;6.06;100.00;99668.84;5000024;28;20278;-77
2022/05/01 03:46:06;;;;;;;10.50;9.40;;;;;;;6.09;100.00;99666.63;4999266;28;20281;-77
2022/05/01 03:48:33;;;;;;;9.33;8.53;;;;;;;6.11;100.00;99666.44;5016247;28;20210;-77
2022/05/01 03:51:00;;;;;;;10.17;9.17;;;;;;;6.15;100.00;99665.88;4999042;28;20222;-78
2022/05/01 03:53:27;;;;;;;9.33;8.43;;;;;;;6.22;100.00;99673.91;5015761;28;20244;-77
2022/05/01 03:55:54;;;;;;;9.23;8.43;;;;;;;6.27;100.00;99676.81;5015938;28;20210;-79
2022/05/01 03:58:21;;;;;;;9.23;8.43;;;;;;;6.32;100.00;99670.91;5032836;28;20182;-79
2022/05/01 04:00:48;;;;;;;9.90;9.00;;;;;;;6.39;100.00;99682.47;4999139;28;20261;-78
2022/05/01 04:03:15;;;;;;;9.53;8.63;;;;;;;6.45;100.00;99677.16;5032282;28;20278;-79
2022/05/01 04:05:43;;;;;;;9.90;8.90;;;;;;;6.55;100.00;99679.50;5015553;28;20589;-77
2022/05/01 04:08:10;;;;;;;9.30;8.50;;;;;;;6.62;100.00;99683.84;5032398;28;20246;-80
2022/05/01 04:10:39;;;;;;;9.67;8.67;;;;;;;6.73;100.00;99677.19;4998779;28;20256;-78
2022/05/01 04:13:06;;;;;;;9.20;8.40;;;;;;;6.86;100.00;99687.13;5014940;28;20265;-77
2022/05/01 04:15:33;;;;;;;9.53;8.63;;;;;;;6.98;100.00;99683.72;5015426;28;20621;-78
2022/05/01 04:18:02;;;;;;;9.93;9.03;;;;;;;7.11;100.00;99682.97;5032664;28;20202;-78
2022/05/01 04:20:29;;;;;;;9.27;8.47;;;;;;;7.22;100.00;99685.09;4983139;28;20186;-77
2022/05/01 04:22:56;;;;;;;9.13;8.33;;;;;;;7.36;100.00;99691.34;5015109;28;20248;-77
2022/05/01 04:25:26;;;;;;;9.30;8.50;;;;;;;7.50;100.00;99690.38;5014773;28;20190;-78
2022/05/01 04:27:59;;;;;;;9.80;8.40;;;;;;;7.62;100.00;99694.09;4998643;28;20225;-78
2022/05/01 04:30:26;;;;;;;9.23;8.10;;;;;;;7.78;100.00;99696.44;5015893;28;20174;-79
2022/05/01 04:33:01;;;;;;;9.27;8.47;;;;;;;7.90;100.00;99696.66;5000564;28;20488;-79
2022/05/01 04:35:31;;;;;;;8.83;8.03;;;;;;;8.08;100.00;99696.91;5037954;28;20240;-76
2022/05/01 04:37:59;;;;;;;9.27;8.37;;;;;;;8.22;100.00;99703.09;5037160;28;20181;-79
2022/05/01 04:40:38;;;;;;;8.97;8.07;;;;;;;8.35;100.00;99703.97;5019114;28;20664;-78
2022/05/01 04:43:07;;;;;;;8.87;8.07;;;;;;;8.50;100.00;99689.63;5002763;28;20256;-77
2022/05/01 04:45:35;;;;;;;9.03;8.20;;;;;;;8.64;100.00;99696.63;5019224;28;20229;-79
2022/05/01 04:48:02;;;;;;;9.47;8.57;;;;;;;8.80;100.00;99688.19;5018701;28;20418;-79
2022/05/01 04:50:29;;;;;;;8.77;8.00;;;;;;;8.97;100.00;99686.72;5036665;28;20732;-76
2022/05/01 04:52:57;;;;;;;9.20;8.27;;;;;;;9.11;100.00;99692.88;5036339;28;20267;-76
2022/05/01 04:55:24;;;;;;;9.00;8.20;;;;;;;9.29;100.00;99695.72;5019001;28;20187;-76
2022/05/01 04:57:50;;;;;;;8.47;7.77;;;;;;;9.42;100.00;99700.22;5019293;28;20260;-77
2022/05/01 05:00:19;;;;;;;10.13;9.03;;;;;;;9.56;100.00;99702.66;5018423;28;20268;-78
2022/05/01 05:02:48;;;;;;;9.00;8.17;;;;;;;9.75;100.00;99700.94;5035979;28;20305;-78
2022/05/01 05:05:16;;;;;;;9.40;8.50;;;;;;;9.97;100.00;99704.13;5036074;28;20738;-77
2022/05/01 05:07:43;;;;;;;9.63;8.80;;;;;;;10.15;100.00;99706.91;5037147;28;20677;-78
2022/05/01 05:10:10;;;;;;;9.53;8.63;;;;;;;10.34;100.00;99702.50;5036443;28;20305;-80
2022/05/01 05:12:42;;;;;;;10.10;8.90;;;;;;;10.46;100.00;99703.41;5002987;28;20505;-79
2022/05/01 05:15:10;;;;;;;10.67;9.47;;;;;;;10.61;100.00;99709.28;5019600;28;20167;-79
2022/05/01 05:17:38;;;;;;;10.07;9.13;;;;;;;10.75;100.00;99713.50;5036421;28;20186;-78
2022/05/01 05:20:07;;;;;;;10.10;9.20;;;;;;;10.89;100.00;99722.25;5035747;28;20182;-77
2022/05/01 05:22:34;;;;;;;10.50;9.60;;;;;;;11.00;100.00;99717.03;5002396;28;20244;-77
2022/05/01 05:25:02;;;;;;;10.57;9.53;;;;;;;11.12;100.00;99719.78;5018127;28;20245;-77
2022/05/01 05:27:29;;;;;;;10.00;9.10;;;;;;;11.23;100.00;99716.38;5002244;28;20221;-79
2022/05/01 05:29:57;;;;;;;10.57;9.70;;;;;;;11.35;100.00;99708.41;5036009;28;20256;-78
2022/05/01 05:32:24;;;;;;;10.13;9.30;;;;;;;11.48;100.00;99719.81;5018640;28;20255;-78
2022/05/01 05:34:51;;;;;;;11.40;10.40;;;;;;;11.59;100.00;99726.31;5018478;28;20205;-79
2022/05/01 05:37:19;;;;;;;11.40;10.20;;;;;;;11.71;100.00;99718.34;5035309;28;20209;-76
2022/05/01 05:39:46;;;;;;;11.10;10.10;;;;;;;11.80;100.00;99717.81;5018495;28;20241;-77
2022/05/01 05:42:14;;;;;;;11.70;10.63;;;;;;;11.93;100.00;99718.72;5017908;28;20189;-80
2022/05/01 05:44:42;;;;;;;11.60;10.50;;;;;;;12.11;100.00;99732.09;5034087;28;20256;-77
2022/05/01 05:47:09;;;;;;;12.23;11.10;;;;;;;12.36;100.00;99728.22;5017827;28;20594;-77
2022/05/01 05:49:36;;;;;;;11.83;10.63;;;;;;;12.53;100.00;99730.28;5017757;28;20233;-79
2022/05/01 05:52:03;;;;;;;11.63;10.57;;;;;;;12.66;100.00;99730.06;5035301;28;20276;-78
2022/05/01 05:54:30;;;;;;;11.53;10.40;;;;;;;12.74;100.00;99725.16;5018006;28;20543;-77
2022/05/01 05:56:57;;;;;;;10.50;9.60;;;;;;;12.85;100.00;99720.88;5035383;28;20189;-79
2022/05/01 05:59:23;;;;;;;11.30;10.20;;;;;;;12.97;100.00;99719.00;5034892;28;20261;-77
2022/05/01 06:01:50;;;;;;;11.73;10.63;;;;;;;13.11;100.00;99728.50;5017306;28;20226;-77
2022/05/01 06:04:17;;;;;;;10.60;9.70;;;;;;;13.29;100.00;99735.69;5034557;28;20186;-78
2022/05/01 06:06:44;;;;;;;11.03;10.03;;;;;;;13.47;100.00;99735.53;5017644;28;20593;-79
2022/05/01 06:09:10;;;;;;;11.60;10.50;;;;;;;13.71;100.00;99725.56;5017387;28;20677;-76
2022/05/01 06:11:38;;;;;;;11.80;10.80;;;;;;;13.86;100.00;99735.81;5034515;28;20528;-76
2022/05/01 06:14:05;;;;;;;12.00;10.90;;;;;;;13.91;100.00;99734.03;5034347;28;20609;-75
2022/05/01 06:16:32;;;;;;;10.80;9.90;;;;;;;14.03;100.00;99728.63;5034327;28;20242;-77
2022/05/01 06:18:59;;;;;;;11.27;10.27;;;;;;;14.27;100.00;99740.13;5017078;28;20178;-75
2022/05/01 06:21:26;;;;;;;12.23;11.13;;;;;;;14.38;100.00;99733.88;5034306;28;20552;-75
2022/05/01 06:23:53;;;;;;;12.57;11.47;;;;;;;14.49;100.00;99735.72;5016528;28;20190;-76
2022/05/01 06:26:21;;;;;;;11.10;10.20;;;;;;;14.60;100.00;99737.56;5016374;28;20241;-75
2022/05/01 06:28:52;;;;;;;12.57;11.27;;;;;;;14.67;100.00;99732.81;5034413;28;20219;-74
2022/05/01 06:31:19;;;;;;;12.23;10.77;;;;;;;14.82;100.00;99727.69;5034184;28;20202;-74
2022/05/01 06:33:46;;;;;;;11.77;10.77;;;;;;;14.87;100.00;99727.75;5034439;28;20189;-75
2022/05/01 06:36:15;;;;;;;11.63;10.53;;;;;;;15.00;100.00;99732.00;5000069;28;20265;-76
2022/05/01 06:38:43;;;;;;;11.57;10.67;;;;;;;15.12;100.00;99731.91;5016435;28;20184;-75
2022/05/01 06:41:10;;;;;;;11.87;10.87;;;;;;;15.11;100.00;99741.91;5000040;28;20522;-74
2022/05/01 06:43:36;;;;;;;11.47;10.37;;;;;;;15.21;100.00;99746.66;5016789;28;20221;-74
2022/05/01 06:46:04;;;;;;;11.67;10.77;;;;;;;15.30;100.00;99745.16;5033716;28;20277;-76
2022/05/01 06:48:31;;;;;;;11.90;10.80;;;;;;;15.26;100.00;99742.13;5033607;28;20192;-74
2022/05/01 06:50:58;;;;;;;11.83;10.80;;;;;;;15.29;100.00;99748.91;5033749;28;20282;-77
2022/05/01 06:53:25;;;;;;;11.30;10.30;;;;;;;15.33;100.00;99753.56;5016518;28;20239;-75
2022/05/01 06:55:53;;;;;;;12.50;11.30;;;;;;;15.37;100.00;99753.88;5016028;28;20597;-74
2022/05/01 06:58:20;;;;;;;11.17;10.17;;;;;;;15.34;100.00;99763.31;5016847;28;20546;-77
2022/05/01 07:00:49;;;;;;;11.30;10.30;;;;;;;15.33;100.00;99761.69;5015695;28;20614;-75
2022/05/01 07:03:15;;;;;;;11.47;10.47;;;;;;;15.36;100.00;99774.66;5015800;28;20192;-75
2022/05/01 07:05:42;;;;;;;11.17;10.27;;;;;;;15.38;100.00;99771.72;5000097;28;20259;-75
2022/05/01 07:08:09;;;;;;;10.90;10.00;;;;;;;15.40;100.00;99764.19;5015668;28;20516;-76
2022/05/01 07:10:36;;;;;;;12.80;11.63;;;;;;;15.52;100.00;99767.66;5033673;28;20225;-77
2022/05/01 07:13:03;;;;;;;12.00;10.87;;;;;;;15.60;100.00;99772.63;5033299;28;20283;-75
2022/05/01 07:15:30;;;;;;;12.13;11.13;;;;;;;15.69;100.00;99767.59;5033273;28;20272;-74
2022/05/01 07:17:56;;;;;;;12.40;11.30;;;;;;;15.66;100.00;99762.72;5015508;28;20269;-73
2022/05/01 07:20:23;;;;;;;12.37;11.27;;;;;;;15.61;100.00;99768.03;5015133;28;20277;-76
2022/05/01 07:22:50;;;;;;;12.40;11.20;;;;;;;15.60;100.00;99759.13;5015551;28;20221;-75
2022/05/01 07:25:17;;;;;;;14.30;13.00;;;;;;;15.40;100.00;99759.59;5014945;28;20217;-74
2022/05/01 07:27:44;;;;;;;16.47;15.07;;;;;;;15.30;100.00;99756.75;5015766;28;20569;-74
2022/05/01 07:30:11;;;;;;;13.40;12.20;;;;;;;15.27;100.00;99767.22;5032411;28;20293;-74
2022/05/01 07:32:38;;;;;;;12.30;11.20;;;;;;;15.13;100.00;99780.25;5033146;28;20227;-76
2022/05/01 07:35:05;;;;;;;19.73;18.03;;;;;;;15.02;100.00;99794.66;4999117;28;20269;-74
2022/05/01 07:37:32;;;;;;;13.90;12.60;;;;;;;14.85;100.00;99793.78;5032973;28;20268;-75
2022/05/01 07:40:01;;;;;;;13.23;12.07;;;;;;;14.63;100.00;99803.66;5015475;28;20182;-76
2022/05/01 07:42:27;;;;;;;13.07;11.93;;;;;;;14.40;100.00;99808.09;5015676;28;20503;-76
2022/05/01 07:44:54;;;;;;;12.07;10.97;;;;;;;14.24;100.00;99803.41;5015340;28;20640;-76
2022/05/01 07:47:21;;;;;;;11.07;10.07;;;;;;;14.08;100.00;99802.28;5031980;28;20205;-75
2022/05/01 07:49:48;;;;;;;10.20;9.20;;;;;;;13.96;100.00;99812.25;5032289;28;20235;-76
2022/05/01 07:52:16;;;;;;;9.63;8.83;;;;;;;13.86;100.00;99805.81;5014112;28;20197;-74
2022/05/01 07:54:43;;;;;;;8.57;7.77;;;;;;;13.76;100.00;99797.56;5032830;28;20192;-75
2022/05/01 07:57:10;;;;;;;8.70;7.90;;;;;;;13.66;100.00;99798.16;5032065;28;20211;-75
2022/05/01 07:59:36;;;;;;;11.20;10.10;;;;;;;13.58;100.00;99791.22;5015140;28;20218;-75
2022/05/01 08:02:04;;;;;;;10.60;9.60;;;;;;;13.59;100.00;99782.09;5031413;28;20281;-75
2022/05/01 08:04:32;;;;;;;8.53;7.83;;;;;;;13.61;100.00;99779.19;5015592;28;20182;-74
2022/05/01 08:07:01;;;;;;;8.30;7.60;;;;;;;13.74;100.00;99775.41;5015056;28;20184;-75
2022/05/01 08:09:29;;;;;;;8.80;7.90;;;;;;;13.78;100.00;99776.56;4998351;28;20350;-75
2022/05/01 08:11:56;;;;;;;8.33;7.63;;;;;;;13.89;100.00;99768.50;4998886;28;20221;-76
2022/05/01 08:14:23;;;;;;;7.70;7.03;;;;;;;14.07;100.00;99765.63;5014911;28;20520;-78
2022/05/01 08:16:50;;;;;;;8.53;7.73;;;;;;;14.31;100.00;99765.53;5015116;28;20558;-75
2022/05/01 08:22:07;;;;;;;8.33;7.63;;;;;;;14.46;100.00;99772.06;5017374;28;20175;-75
2022/05/01 08:24:34;;;;;;;8.33;7.53;;;;;;;14.67;100.00;99764.34;5015278;28;20176;-74
2022/05/01 08:27:06;;;;;;;9.10;8.20;;;;;;;14.92;100.00;99768.31;5014718;28;20179;-77
2022/05/01 08:29:36;;;;;;;8.00;7.37;;;;;;;15.22;100.00;99767.16;5014882;28;20252;-75
2022/05/01 08:32:04;;;;;;;8.43;7.63;;;;;;;15.33;100.00;99769.78;5014603;28;20214;-74
2022/05/01 08:34:31;;;;;;;9.00;8.20;;;;;;;15.21;100.00;99779.81;5014930;28;20277;-75
2022/05/01 08:36:58;;;;;;;8.90;8.10;;;;;;;15.08;100.00;99782.03;5014831;28;20227;-75
2022/05/01 08:39:24;;;;;;;8.70;8.00;;;;;;;14.90;100.00;99792.00;5014903;28;20272;-75
2022/05/01 08:41:51;;;;;;;9.50;8.70;;;;;;;14.57;100.00;99793.81;5014980;28;20265;-75
2022/05/01 08:44:22;;;;;;;10.77;9.77;;;;;;;14.33;100.00;99795.75;5032169;28;20235;-74
2022/05/01 08:46:58;;;;;;;15.17;9.90;;;;;;;14.23;100.00;99803.66;5015126;28;20217;-76
2022/05/01 08:49:25;;;;;;;11.07;9.30;;;;;;;14.13;100.00;99809.66;5014113;28;20275;-75
2022/05/01 08:51:52;;;;;;;9.53;8.53;;;;;;;14.08;100.00;99813.06;5014311;28;20512;-75
2022/05/01 08:54:19;;;;;;;9.37;8.47;;;;;;;14.09;100.00;99811.19;5014486;28;20275;-75
2022/05/01 08:56:46;;;;;;;9.67;8.60;;;;;;;14.11;100.00;99809.06;5014008;28;20497;-75
2022/05/01 08:59:15;;;;;;;10.47;9.47;;;;;;;14.17;100.00;99800.03;5014008;28;20748;-75
2022/05/01 09:01:43;;;;;;;11.37;10.23;;;;;;;14.31;100.00;99798.72;5014102;28;20314;-74
2022/05/01 09:04:14;;;;;;;11.23;10.13;;;;;;;14.43;100.00;99786.03;5013482;28;20204;-75
2022/05/01 09:06:44;;;;;;;10.73;9.73;;;;;;;14.54;100.00;99784.34;4998123;28;20775;-76
2022/05/01 09:09:17;;;;;;;10.70;9.70;;;;;;;14.54;100.00;99777.09;5013510;28;20578;-75
2022/05/01 09:14:32;;;;;;;11.17;10.17;;;;;;;14.68;100.00;99747.13;5016561;28;20201;-75
2022/05/01 09:17:09;;;;;;;10.33;9.33;;;;;;;14.77;100.00;99734.84;5030904;28;20558;-75
2022/05/01 09:19:44;;;;;;;11.10;9.97;;;;;;;14.74;100.00;99728.09;5015602;28;20235;-75
2022/05/01 09:22:12;;;;;;;10.80;9.90;;;;;;;14.82;100.00;99724.16;5001547;28;20177;-76
2022/05/01 09:24:39;;;;;;;10.80;9.80;;;;;;;14.53;100.00;99723.38;5034850;28;20211;-75
2022/05/01 09:27:06;;;;;;;11.10;10.10;;;;;;;14.89;100.00;99741.81;5017080;28;20219;-76
2022/05/01 09:29:34;;;;;;;9.67;8.77;;;;;;;15.00;100.00;99750.91;5017433;28;20237;-75
2022/05/01 09:32:03;;;;;;;10.23;9.40;;;;;;;15.08;100.00;99766.66;5034446;28;20185;-75
2022/05/01 09:34:32;;;;;;;9.60;8.70;;;;;;;15.03;100.00;99760.38;5034694;28;20184;-75
2022/05/01 09:37:02;;;;;;;9.43;8.67;;;;;;;14.92;100.00;99759.41;5017309;28;20247;-75
2022/05/01 09:39:32;;;;;;;9.87;9.07;;;;;;;14.85;100.00;99759.53;5017318;28;20223;-76
2022/05/01 09:42:17;;;;;;;9.30;8.50;;;;;;;14.70;100.00;99756.59;5001216;28;20202;-74
2022/05/01 09:44:43;;;;;;;10.10;9.17;;;;;;;14.66;100.00;99760.00;5017438;28;20232;-76
2022/05/01 09:47:11;;;;;;;10.27;9.37;;;;;;;14.59;100.00;99762.88;5016681;28;20386;-75
2022/05/01 09:49:51;;;;;;;9.83;8.90;;;;;;;14.54;100.00;99763.59;5017485;28;20509;-75
2022/05/01 09:52:19;;;;;;;10.03;9.07;;;;;;;14.62;100.00;99754.28;5034134;28;20506;-75
2022/05/01 09:55:03;;;;;;;9.83;8.90;;;;;;;14.74;100.00;99746.97;5034324;28;20604;-75
2022/05/01 09:57:30;;;;;;;10.10;9.23;;;;;;;14.50;100.00;99750.84;5016803;28;20233;-75
2022/05/01 09:59:56;;;;;;;10.70;9.70;;;;;;;14.36;100.00;99753.03;5034264;28;20539;-75
2022/05/01 10:02:28;;;;;;;11.00;9.90;;;;;;;14.34;100.00;99755.09;5012601;28;20324;-75
2022/05/01 10:05:03;;;;;;;10.50;9.60;;;;;;;14.34;100.00;99757.78;5012998;28;20190;-76
2022/05/01 10:07:36;;;;;;;11.27;10.17;;;;;;;14.32;100.00;99751.03;5014487;28;20186;-76
2022/05/01 10:10:07;;;;;;;10.30;9.50;;;;;;;14.33;100.00;99755.31;5013067;28;20490;-75
2022/05/01 10:12:41;;;;;;;10.67;9.67;;;;;;;14.35;100.00;99761.31;5014293;28;20253;-75
2022/05/01 10:15:09;;;;;;;11.73;10.63;;;;;;;14.34;100.00;99765.06;4996742;28;20325;-75
2022/05/01 10:17:38;;;;;;;12.57;11.40;;;;;;;14.40;100.00;99778.44;5013205;28;20248;-75
2022/05/01 10:20:05;;;;;;;12.30;11.30;;;;;;;14.45;100.00;99778.53;4996772;28;20200;-75
2022/05/01 10:22:32;;;;;;;14.07;12.80;;;;;;;14.46;100.00;99777.44;5013062;28;20194;-77
2022/05/01 10:24:59;;;;;;;13.50;12.17;;;;;;;14.51;100.00;99780.25;5014358;28;20236;-75
2022/05/01 10:27:43;;;;;;;12.43;11.30;;;;;;;14.72;100.00;99776.03;5013844;28;20276;-75
2022/05/01 10:33:15;;;;;;;11.23;10.33;;;;;;;15.24;100.00;99762.34;4998828;28;20200;-75
2022/05/01 10:36:34;;;;;;;11.90;10.87;;;;;;;15.49;100.00;99756.50;5013892;28;20212;-75
2022/05/01 10:39:08;;;;;;;11.93;10.90;;;;;;;15.83;100.00;99745.38;4996144;28;20205;-74
2022/05/01 10:41:43;;;;;;;11.70;10.70;;;;;;;16.12;100.00;99743.31;5012444;28;20221;-76
2022/05/01 10:44:36;;;;;;;11.17;10.23;;;;;;;16.56;100.00;99738.63;5013414;28;20185;-74
2022/05/01 10:47:13;;;;;;;11.77;10.77;;;;;;;16.96;100.00;99730.09;5011855;28;20190;-78
2022/05/01 10:49:43;;;;;;;10.83;9.93;;;;;;;17.23;100.00;99723.78;4995949;28;20182;-76
2022/05/01 10:52:21;;;;;;;10.70;9.70;;;;;;;17.57;100.00;99715.06;5011954;28;20182;-76
2022/05/01 10:54:54;;;;;;;8.67;8.03;;;;;;;17.80;100.00;99730.09;5013468;28;20195;-78
2022/05/01 10:57:23;;;;;;;8.47;7.77;;;;;;;17.84;100.00;99722.25;5011878;28;20729;-79
2022/05/01 10:59:53;;;;;;;8.10;7.40;;;;;;;18.14;100.00;99716.97;5012441;28;20175;-75
2022/05/01 11:02:25;;;;;;;7.27;6.57;;;;;;;18.34;100.00;99714.28;5011375;28;20241;-76
2022/05/01 11:04:54;;;;;;;7.03;6.27;;;;;;;18.20;100.00;99715.06;4996143;28;20179;-77
2022/05/01 11:07:22;;;;;;;7.07;6.50;;;;;;;18.15;100.00;99707.72;4996011;28;20266;-76
2022/05/01 11:09:49;;;;;;;6.30;5.80;;;;;;;18.49;100.00;99719.75;5011810;28;20278;-78
2022/05/01 11:12:22;;;;;;;6.90;6.30;;;;;;;18.58;100.00;99711.91;4995512;28;20201;-76
2022/05/01 11:14:52;;;;;;;7.50;6.90;;;;;;;18.85;100.00;99712.47;5012035;28;20172;-77
2022/05/01 11:17:51;;;;;;;6.63;6.07;;;;;;;18.73;100.00;99705.69;5011570;28;20215;-75
2022/05/01 11:20:18;;;;;;;7.53;6.83;;;;;;;18.85;100.00;99704.31;5011628;28;20537;-78
2022/05/01 11:22:46;;;;;;;7.27;6.67;;;;;;;18.61;100.00;99697.81;5011753;28;20338;-78
2022/05/01 11:25:32;;;;;;;7.10;6.60;;;;;;;18.42;100.00;99696.69;5012529;28;20192;-76
2022/05/01 11:27:59;;;;;;;7.13;6.43;;;;;;;18.65;100.00;99695.38;5011536;28;20199;-75
2022/05/01 11:30:26;;;;;;;7.70;7.10;;;;;;;18.91;100.00;99699.72;5011402;28;20199;-77
2022/05/01 11:33:03;;;;;;;6.13;5.63;;;;;;;18.99;100.00;99696.44;5012952;28;20489;-78
2022/05/01 11:35:53;;;;;;;7.53;5.87;;;;;;;19.42;100.00;99688.75;5012746;28;20179;-76
2022/05/01 11:38:23;;;;;;;4.80;4.40;;;;;;;19.89;100.00;99685.63;5012383;28;20198;-76
2022/05/01 11:40:57;;;;;;;4.13;3.80;;;;;;;20.31;100.00;99688.69;5011263;28;20194;-75
2022/05/01 11:43:24;;;;;;;4.47;4.17;;;;;;;20.02;100.00;99685.84;5011193;28;20556;-78
2022/05/01 11:45:51;;;;;;;4.40;4.10;;;;;;;20.13;100.00;99679.25;5012659;28;20183;-75
2022/05/01 11:48:19;;;;;;;4.43;4.13;;;;;;;20.17;100.00;99685.75;5011173;28;20191;-77
2022/05/01 11:50:48;;;;;;;3.60;3.30;;;;;;;20.10;100.00;99676.28;5011105;28;20243;-78
2022/05/01 11:53:26;;;;;;;4.20;3.80;;;;;;;20.09;100.00;99685.53;5010893;28;20607;-75